HTBU

Bukoba Airport

Bukoba, Tanzania
METAR HTBU 170500Z 30003KT 9999 FEW015 FEW017CB BKN080 18/15 Q1017
Observed Flight Rules
Oct-17 @ 05:00 UTC (an hour ago) Visual Flight Rules
Wind Visibility Clouds
300° at 3 knots 10,000+ meters
  • Few at 1,500' AGL
  • Few at 1,700' AGL
  • Broken at 8,000' AGL
Temperatures Readings
Current 18°C / 64°F
Dewpoint 15°C / 59°F
Humidity 83%
Altimeter 30.03" Hg
Pressure 1017 hPa
Elevation 1137
METAR HTBU 170500Z 30003KT 9999 FEW015 FEW017CB BKN080 18/15 Q1017
Observed Flight Rules
Oct-17 @ 05:00 UTC
(an hour ago)
VFR
Wind Visibility
300° at 3 knots 10,000+ meters
Clouds
  • Few at 1,500' AGL
  • Few at 1,700' AGL
  • Broken at 8,000' AGL
Temperature Dewpoint
18°C / 64°F 15°C / 59°F
Humidity Altimeter Pressure
83% 30.03" Hg 1017 hPa